Time;durP1;ratioP1;P1;durP2;ratioP2;P2;SDS_P1;SDS_P2;PMS_P1;PMS_P2;Temp;Humidity;BMP_temperature;BMP_pressure;BME280_temperature;BME280_humidity;BME280_pressure;Samples;Min_cycle;Max_cycle;Signal;HPM_P1;HPM_P2
2021/07/24 00:03:39;;;;;;;12.85;8.52;;;;;17.90;100672.00;;;;10428747;28;20190;-76
2021/07/24 00:08:41;;;;;;;12.73;9.90;;;;;18.00;100671.00;;;;10443893;28;20194;-76
2021/07/24 00:13:43;;;;;;;13.18;9.18;;;;;18.00;100660.00;;;;10427352;28;20219;-77
2021/07/24 00:18:45;;;;;;;10.98;8.57;;;;;18.00;100659.00;;;;10443069;28;20194;-76
2021/07/24 00:23:47;;;;;;;10.67;8.50;;;;;18.00;100658.00;;;;10427765;28;20220;-76
2021/07/24 00:28:49;;;;;;;11.73;8.83;;;;;17.90;100655.00;;;;10467703;28;20201;-76
2021/07/24 00:33:51;;;;;;;11.23;9.37;;;;;17.70;100647.00;;;;10451096;28;20214;-76
2021/07/24 00:38:53;;;;;;;12.00;9.00;;;;;17.60;100622.00;;;;10451102;28;20193;-76
2021/07/24 00:43:56;;;;;;;15.07;9.70;;;;;17.50;100595.00;;;;10483640;28;20217;-75
2021/07/24 00:49:01;;;;;;;10.87;9.17;;;;;17.40;100571.00;;;;10475470;28;20248;-76
2021/07/24 00:54:23;;;;;;;16.50;10.23;;;;;17.40;100569.00;;;;10449133;28;20213;-76
2021/07/24 00:59:25;;;;;;;13.70;10.70;;;;;17.40;100522.00;;;;10425471;28;20198;-76
2021/07/24 01:04:27;;;;;;;13.73;10.67;;;;;17.50;100503.00;;;;10441559;28;20217;-76
2021/07/24 01:09:32;;;;;;;13.93;10.47;;;;;17.50;100508.00;;;;10441454;28;20273;-77
2021/07/24 01:14:34;;;;;;;16.10;10.67;;;;;17.40;100519.00;;;;10425002;28;20592;-76
2021/07/24 01:19:37;;;;;;;17.07;11.93;;;;;17.30;100514.00;;;;10441250;28;20198;-76
2021/07/24 01:24:40;;;;;;;19.80;11.63;;;;;17.30;100512.00;;;;10424799;28;20206;-76
2021/07/24 01:29:43;;;;;;;14.53;12.03;;;;;17.20;100500.00;;;;10441154;28;20732;-76
2021/07/24 01:34:52;;;;;;;16.00;12.93;;;;;17.10;100495.00;;;;10425273;28;20206;-76
2021/07/24 01:39:57;;;;;;;14.10;11.50;;;;;17.10;100489.00;;;;10423887;28;20190;-76
2021/07/24 01:45:02;;;;;;;16.77;12.33;;;;;17.00;100498.00;;;;10455035;28;20209;-77
2021/07/24 01:55:51;;;;;;;16.93;11.63;;;;;16.90;100521.00;;;;10465018;28;20193;-76
2021/07/24 02:00:54;;;;;;;16.47;13.00;;;;;16.90;100530.00;;;;10448795;28;20680;-76
2021/07/24 02:06:03;;;;;;;14.33;12.00;;;;;16.80;100509.00;;;;10464234;28;20304;-76
2021/07/24 02:11:07;;;;;;;18.13;12.70;;;;;16.80;100482.00;;;;10448281;28;20193;-76
2021/07/24 02:16:10;;;;;;;19.50;12.60;;;;;16.70;100462.00;;;;10463580;28;20211;-76
2021/07/24 02:21:12;;;;;;;19.00;13.37;;;;;16.70;100456.00;;;;10463157;28;20197;-76
2021/07/24 02:26:15;;;;;;;17.90;12.73;;;;;16.60;100417.00;;;;10422078;28;20300;-76
2021/07/24 02:31:20;;;;;;;16.00;12.90;;;;;16.70;100420.00;;;;10439357;28;20269;-76
2021/07/24 02:36:23;;;;;;;16.67;13.07;;;;;16.60;100425.00;;;;10442244;28;20209;-76
2021/07/24 02:41:25;;;;;;;23.30;13.07;;;;;16.60;100421.00;;;;10463236;28;20657;-76
2021/07/24 02:46:28;;;;;;;20.10;13.00;;;;;16.60;100411.00;;;;10462303;28;20212;-76
2021/07/24 02:51:31;;;;;;;18.93;12.97;;;;;16.60;100429.00;;;;10470464;28;20649;-76
2021/07/24 02:56:35;;;;;;;17.33;12.37;;;;;16.60;100416.00;;;;10437953;28;20198;-76
2021/07/24 03:01:37;;;;;;;16.93;12.93;;;;;16.60;100439.00;;;;10436821;28;20193;-76
2021/07/24 03:06:40;;;;;;;20.70;13.77;;;;;16.50;100436.00;;;;10497138;28;20718;-76
2021/07/24 03:11:43;;;;;;;17.67;12.40;;;;;16.50;100449.00;;;;10446207;28;20201;-76
2021/07/24 03:16:45;;;;;;;17.37;12.77;;;;;16.50;100458.00;;;;10440276;28;20189;-76
2021/07/24 03:21:47;;;;;;;18.83;14.43;;;;;16.50;100453.00;;;;10478841;28;20205;-76
2021/07/24 03:26:48;;;;;;;19.70;13.53;;;;;16.60;100468.00;;;;10404795;28;20213;-76
2021/07/24 03:31:50;;;;;;;17.00;13.47;;;;;16.60;100449.00;;;;10420891;28;20194;-76
2021/07/24 03:36:52;;;;;;;17.40;13.13;;;;;16.60;100434.00;;;;10428780;28;20623;-76
2021/07/24 03:41:54;;;;;;;16.37;13.47;;;;;16.60;100453.00;;;;10445077;28;20897;-76
2021/07/24 03:46:56;;;;;;;17.77;13.30;;;;;16.50;100465.00;;;;10428666;28;20249;-76
2021/07/24 03:51:58;;;;;;;19.50;14.33;;;;;16.50;100456.00;;;;10428327;28;20241;-76
2021/07/24 03:57:01;;;;;;;20.27;13.87;;;;;16.50;100465.00;;;;10428685;28;20212;-76
2021/07/24 04:02:08;;;;;;;19.60;14.10;;;;;16.40;100464.00;;;;10444683;28;20178;-76
2021/07/24 04:07:10;;;;;;;19.20;14.70;;;;;16.30;100471.00;;;;10443971;28;20207;-76
2021/07/24 04:12:12;;;;;;;17.43;14.57;;;;;16.30;100471.00;;;;10427683;28;20199;-76
2021/07/24 04:17:14;;;;;;;22.40;15.77;;;;;16.30;100455.00;;;;10427951;28;20581;-76
2021/07/24 04:22:16;;;;;;;21.40;16.50;;;;;16.30;100433.00;;;;10395227;28;20205;-76
2021/07/24 04:27:18;;;;;;;24.83;16.50;;;;;16.30;100423.00;;;;10427175;28;20214;-76
2021/07/24 04:32:20;;;;;;;21.73;16.47;;;;;16.30;100425.00;;;;10428891;28;20242;-76
2021/07/24 04:37:22;;;;;;;23.53;15.70;;;;;16.30;100429.00;;;;10484078;28;20190;-76
2021/07/24 04:42:24;;;;;;;24.23;15.90;;;;;16.40;100424.00;;;;10467819;28;20193;-76
2021/07/24 04:47:26;;;;;;;23.47;16.23;;;;;16.40;100412.00;;;;10483117;28;20554;-76
2021/07/24 04:52:29;;;;;;;24.57;14.77;;;;;16.40;100397.00;;;;10467309;28;20190;-76
2021/07/24 04:57:33;;;;;;;21.23;14.93;;;;;16.50;100393.00;;;;10483390;28;20193;-76
2021/07/24 05:02:35;;;;;;;19.53;14.20;;;;;16.60;100385.00;;;;10448640;28;20205;-76
2021/07/24 05:07:37;;;;;;;20.93;15.00;;;;;16.60;100369.00;;;;10483255;28;20201;-76
2021/07/24 05:12:40;;;;;;;20.30;15.47;;;;;16.60;100359.00;;;;10466837;28;20236;-76
2021/07/24 05:17:42;;;;;;;19.33;14.30;;;;;16.70;100353.00;;;;10433879;28;20671;-76
2021/07/24 05:22:44;;;;;;;20.63;14.77;;;;;16.70;100335.00;;;;10462420;28;20199;-76
2021/07/24 05:27:46;;;;;;;19.87;14.23;;;;;16.80;100306.00;;;;10441334;28;20585;-76
2021/07/24 05:32:47;;;;;;;20.17;14.77;;;;;16.90;100289.00;;;;10425335;28;20210;-76
2021/07/24 05:37:49;;;;;;;17.97;14.23;;;;;17.00;100278.00;;;;10441449;28;20634;-77
2021/07/24 05:42:51;;;;;;;20.47;14.27;;;;;17.10;100264.00;;;;10440868;28;20569;-76
2021/07/24 05:47:53;;;;;;;19.00;14.67;;;;;17.30;100281.00;;;;10446765;28;20308;-76
2021/07/24 05:52:55;;;;;;;20.33;14.10;;;;;17.50;100277.00;;;;10459487;28;20284;-76
2021/07/24 05:57:56;;;;;;;18.33;13.87;;;;;17.70;100271.00;;;;10414580;28;20650;-76
2021/07/24 06:02:58;;;;;;;16.13;13.20;;;;;17.80;100293.00;;;;10440491;28;20641;-76
2021/07/24 06:08:01;;;;;;;17.13;13.17;;;;;17.90;100337.00;;;;10423226;28;20295;-76
2021/07/24 06:13:03;;;;;;;17.57;13.40;;;;;18.10;100332.00;;;;10423043;28;20668;-76
2021/07/24 06:18:05;;;;;;;19.98;13.15;;;;;18.30;100343.00;;;;10462937;28;20649;-76
2021/07/24 06:23:06;;;;;;;15.83;12.53;;;;;18.60;100344.00;;;;10427236;28;20248;-77
2021/07/24 06:28:09;;;;;;;17.75;12.85;;;;;18.90;100341.00;;;;10407392;28;20206;-76
2021/07/24 06:33:11;;;;;;;18.38;12.95;;;;;19.20;100356.00;;;;10440604;28;20210;-77
2021/07/24 06:38:12;;;;;;;14.35;12.07;;;;;19.50;100350.00;;;;10440012;28;20198;-76
2021/07/24 06:43:15;;;;;;;17.25;12.82;;;;;19.80;100342.00;;;;10406228;28;20568;-77
2021/07/24 06:48:17;;;;;;;19.50;12.82;;;;;19.90;100356.00;;;;10423293;28;20301;-77
2021/07/24 06:53:36;;;;;;;16.83;11.88;;;;;19.60;100340.00;;;;10453198;28;20201;-76
2021/07/24 06:58:38;;;;;;;19.00;12.48;;;;;19.40;100346.00;;;;10422496;28;20191;-77
2021/07/24 07:03:40;;;;;;;17.15;12.52;;;;;19.30;100343.00;;;;10422340;28;20194;-76
2021/07/24 07:08:42;;;;;;;15.48;11.52;;;;;19.20;100346.00;;;;10438463;28;20225;-76
2021/07/24 07:13:44;;;;;;;15.75;12.82;;;;;19.20;100319.00;;;;10475428;28;20818;-76
2021/07/24 07:18:46;;;;;;;19.27;13.25;;;;;19.20;100326.00;;;;10440075;28;20545;-76
2021/07/24 07:23:48;;;;;;;15.82;12.80;;;;;19.20;100326.00;;;;10447395;28;20604;-76
2021/07/24 07:28:50;;;;;;;18.88;13.25;;;;;19.30;100325.00;;;;10430832;28;20210;-76
2021/07/24 07:33:54;;;;;;;16.60;12.27;;;;;19.30;100316.00;;;;10464667;28;20206;-77
2021/07/24 07:38:56;;;;;;;21.00;13.95;;;;;19.40;100319.00;;;;10430626;28;20186;-76
2021/07/24 07:43:58;;;;;;;16.25;13.07;;;;;19.50;100312.00;;;;10446699;28;20198;-76
2021/07/24 07:49:01;;;;;;;20.67;12.45;;;;;19.60;100309.00;;;;10429579;28;20230;-77
2021/07/24 07:54:03;;;;;;;18.63;12.60;;;;;19.80;100310.00;;;;10460381;28;20205;-77
2021/07/24 07:59:04;;;;;;;14.38;12.55;;;;;19.80;100318.00;;;;10470214;28;20186;-77
2021/07/24 08:04:06;;;;;;;14.40;12.27;;;;;19.90;100326.00;;;;10445080;28;20205;-76
2021/07/24 08:09:08;;;;;;;17.65;13.35;;;;;20.00;100339.00;;;;10428892;28;20663;-77
2021/07/24 08:14:10;;;;;;;19.52;12.20;;;;;20.00;100340.00;;;;10468598;28;20194;-77
2021/07/24 08:19:12;;;;;;;16.60;12.90;;;;;20.10;100350.00;;;;10468629;28;20194;-77
2021/07/24 08:24:14;;;;;;;17.50;12.75;;;;;20.10;100339.00;;;;10467715;28;20201;-76
2021/07/24 08:29:17;;;;;;;16.95;12.88;;;;;20.20;100337.00;;;;10457406;28;20271;-76
2021/07/24 08:34:19;;;;;;;19.83;13.93;;;;;20.30;100341.00;;;;10463042;28;20222;-76
2021/07/24 08:39:21;;;;;;;20.10;13.32;;;;;20.40;100331.00;;;;10445751;28;20485;-76
2021/07/24 08:44:23;;;;;;;13.75;12.20;;;;;20.40;100339.00;;;;10444770;28;20675;-77
2021/07/24 08:49:25;;;;;;;17.38;12.95;;;;;20.40;100337.00;;;;10397286;28;20266;-77
2021/07/24 08:54:27;;;;;;;16.45;13.27;;;;;20.40;100340.00;;;;10422178;28;20247;-77
2021/07/24 08:59:29;;;;;;;17.48;13.93;;;;;20.50;100351.00;;;;10452483;28;20182;-77
2021/07/24 09:04:32;;;;;;;19.10;13.77;;;;;20.60;100361.00;;;;10431963;28;20194;-77
2021/07/24 09:09:35;;;;;;;17.48;13.63;;;;;20.60;100356.00;;;;10457266;28;20205;-77
2021/07/24 09:14:37;;;;;;;17.05;13.52;;;;;20.60;100358.00;;;;10449967;28;20186;-77
2021/07/24 09:19:39;;;;;;;16.55;13.50;;;;;20.60;100358.00;;;;10477837;28;20662;-77
2021/07/24 09:24:41;;;;;;;16.80;13.10;;;;;20.60;100356.00;;;;10445750;28;20707;-77
2021/07/24 09:29:43;;;;;;;17.35;14.27;;;;;20.70;100356.00;;;;10438148;28;20229;-77
2021/07/24 09:34:46;;;;;;;16.65;13.32;;;;;20.80;100366.00;;;;10473830;28;20229;-77
2021/07/24 09:39:48;;;;;;;19.17;13.75;;;;;20.80;100374.00;;;;10439718;28;20657;-77
2021/07/24 09:45:07;;;;;;;17.58;14.13;;;;;20.90;100369.00;;;;10459570;28;20201;-78
2021/07/24 09:50:14;;;;;;;17.55;14.65;;;;;20.90;100363.00;;;;10443739;28;20215;-77
2021/07/24 09:55:21;;;;;;;16.40;14.23;;;;;21.00;100366.00;;;;10424647;28;20205;-77
2021/07/24 10:00:32;;;;;;;19.30;14.32;;;;;21.20;100367.00;;;;10418482;28;20197;-77
2021/07/24 10:05:40;;;;;;;16.45;13.98;;;;;21.40;100359.00;;;;10438028;28;20211;-77
2021/07/24 10:10:43;;;;;;;17.60;14.43;;;;;21.50;100351.00;;;;10444684;28;20198;-77
2021/07/24 10:15:45;;;;;;;16.38;14.15;;;;;21.50;100354.00;;;;10450313;28;20189;-77
2021/07/24 10:20:49;;;;;;;17.77;13.02;;;;;21.60;100364.00;;;;10405494;28;20192;-77
2021/07/24 10:26:10;;;;;;;19.02;14.35;;;;;21.80;100374.00;;;;10412265;28;20634;-77
2021/07/24 10:31:20;;;;;;;16.40;14.18;;;;;22.00;100370.00;;;;10442281;28;20269;-77
2021/07/24 10:36:33;;;;;;;18.40;13.80;;;;;22.10;100370.00;;;;10425311;28;20206;-77
2021/07/24 10:41:38;;;;;;;16.95;15.15;;;;;22.10;100385.00;;;;10407996;28;20198;-77
2021/07/24 10:46:40;;;;;;;18.10;14.90;;;;;22.10;100391.00;;;;10421411;28;20268;-77
2021/07/24 10:51:54;;;;;;;17.92;14.40;;;;;22.20;100400.00;;;;10435669;28;20191;-76
2021/07/24 10:56:58;;;;;;;17.75;14.55;;;;;22.00;100405.00;;;;10459538;28;20185;-77
2021/07/24 11:02:00;;;;;;;22.17;15.95;;;;;21.90;100402.00;;;;10446047;28;20235;-77
2021/07/24 11:07:12;;;;;;;18.63;15.35;;;;;21.80;100396.00;;;;10467364;28;20244;-77
2021/07/24 11:12:15;;;;;;;23.13;14.95;;;;;21.80;100406.00;;;;10481732;28;20190;-76
2021/07/24 11:17:18;;;;;;;18.55;14.00;;;;;21.90;100409.00;;;;10454133;28;20219;-77
2021/07/24 11:22:22;;;;;;;18.73;15.13;;;;;22.00;100411.00;;;;10446416;28;20193;-77
2021/07/24 11:27:31;;;;;;;16.67;14.88;;;;;22.10;100408.00;;;;10435638;28;20256;-77
2021/07/24 11:32:41;;;;;;;21.42;14.70;;;;;22.10;100411.00;;;;10454330;28;20220;-77
2021/07/24 11:37:46;;;;;;;18.15;14.80;;;;;22.10;100415.00;;;;10436144;28;20687;-77
2021/07/24 11:43:24;;;;;;;17.05;15.23;;;;;22.00;100405.00;;;;10461911;28;20214;-77
2021/07/24 11:48:27;;;;;;;23.80;15.68;;;;;22.00;100409.00;;;;10448005;28;20239;-78
2021/07/24 11:53:29;;;;;;;17.83;15.43;;;;;22.00;100400.00;;;;10504765;28;20243;-78
2021/07/24 11:58:31;;;;;;;17.65;14.77;;;;;22.00;100406.00;;;;10501233;28;20182;-78
2021/07/24 12:03:33;;;;;;;19.20;14.40;;;;;22.00;100399.00;;;;10476823;28;20187;-76
2021/07/24 12:08:36;;;;;;;24.27;14.65;;;;;22.00;100391.00;;;;10445193;28;20264;-77
2021/07/24 12:13:38;;;;;;;20.20;15.43;;;;;21.90;100390.00;;;;10484560;28;20194;-76
2021/07/24 12:18:48;;;;;;;20.98;15.65;;;;;21.90;100392.00;;;;10472461;28;20208;-78
2021/07/24 12:23:58;;;;;;;21.85;15.25;;;;;21.90;100380.00;;;;10476761;28;20205;-77
2021/07/24 12:29:01;;;;;;;22.35;16.75;;;;;22.10;100371.00;;;;10478951;28;20723;-78
2021/07/24 12:34:15;;;;;;;18.20;16.25;;;;;22.30;100364.00;;;;10431767;28;20220;-77
2021/07/24 12:39:18;;;;;;;19.35;16.23;;;;;22.50;100358.00;;;;10461524;28;20192;-77
2021/07/24 12:44:20;;;;;;;18.15;15.13;;;;;22.90;100351.00;;;;10467233;28;20849;-78
2021/07/24 12:49:37;;;;;;;17.27;15.18;;;;;23.40;100353.00;;;;10472543;28;20214;-77
2021/07/24 12:54:57;;;;;;;18.33;14.32;;;;;23.70;100348.00;;;;10467625;28;20198;-78
2021/07/24 13:00:01;;;;;;;18.13;14.90;;;;;23.70;100362.00;;;;10499301;28;20194;-78
2021/07/24 13:05:04;;;;;;;16.42;14.73;;;;;23.90;100365.00;;;;10459778;28;20290;-78
2021/07/24 13:10:07;;;;;;;20.38;13.57;;;;;24.20;100360.00;;;;10430727;28;20217;-78
2021/07/24 13:15:10;;;;;;;17.95;13.48;;;;;24.70;100356.00;;;;10430890;28;20653;-77
2021/07/24 13:20:13;;;;;;;18.13;13.77;;;;;25.30;100357.00;;;;10478200;28;20190;-77
2021/07/24 13:30:20;;;;;;;16.92;13.40;;;;;26.40;100344.00;;;;10471255;28;20677;-78
2021/07/24 13:35:22;;;;;;;13.70;12.25;;;;;27.70;100346.00;;;;10446727;28;20213;-78
2021/07/24 13:40:23;;;;;;;15.10;12.05;;;;;28.50;100350.00;;;;10460618;28;20198;-78
2021/07/24 13:45:25;;;;;;;19.00;12.15;;;;;28.70;100352.00;;;;10489220;28;20281;-77
2021/07/24 13:50:28;;;;;;;13.85;11.80;;;;;28.20;100355.00;;;;10473471;28;20198;-78
2021/07/24 13:55:30;;;;;;;18.42;12.85;;;;;28.50;100353.00;;;;10430462;28;20201;-78
2021/07/24 14:00:32;;;;;;;14.38;11.23;;;;;29.30;100356.00;;;;10427436;28;20649;-78
2021/07/24 14:05:35;;;;;;;16.10;11.68;;;;;30.90;100351.00;;;;10428178;28;20200;-78
2021/07/24 14:10:37;;;;;;;16.23;11.30;;;;;31.80;100358.00;;;;10431801;28;20289;-78
2021/07/24 14:15:39;;;;;;;13.48;10.68;;;;;30.50;100352.00;;;;10445042;28;20235;-78
2021/07/24 14:20:43;;;;;;;12.43;10.15;;;;;29.70;100350.00;;;;10447287;28;20534;-78
2021/07/24 14:25:45;;;;;;;13.07;10.32;;;;;28.80;100337.00;;;;10443924;28;20194;-78
2021/07/24 14:30:47;;;;;;;14.15;10.32;;;;;28.00;100334.00;;;;10459931;28;20233;-78
2021/07/24 14:35:49;;;;;;;13.75;10.60;;;;;27.60;100333.00;;;;10463904;28;20271;-78
2021/07/24 14:41:20;;;;;;;16.02;11.48;;;;;27.10;100334.00;;;;10489282;28;20201;-78
2021/07/24 14:46:22;;;;;;;17.00;10.75;;;;;26.80;100339.00;;;;10445313;28;20230;-78
2021/07/24 14:51:24;;;;;;;14.98;11.40;;;;;26.30;100335.00;;;;10448032;28;20197;-77
2021/07/24 14:56:26;;;;;;;64.45;51.03;;;;;26.00;100342.00;;;;10456241;28;20876;-77
2021/07/24 15:01:30;;;;;;;15.77;13.50;;;;;25.80;100344.00;;;;10450733;28;20601;-78
2021/07/24 15:06:32;;;;;;;13.45;10.88;;;;;25.60;100359.00;;;;10465644;28;20206;-78
2021/07/24 15:11:34;;;;;;;13.95;12.00;;;;;25.40;100354.00;;;;10452705;28;20609;-78
2021/07/24 15:16:37;;;;;;;18.23;11.57;;;;;25.10;100362.00;;;;10477037;28;20182;-78
2021/07/24 15:21:41;;;;;;;24.70;15.00;;;;;25.00;100357.00;;;;10449777;28;20197;-78
2021/07/24 15:26:42;;;;;;;13.75;10.82;;;;;25.10;100351.00;;;;10470423;28;20205;-78
2021/07/24 15:31:44;;;;;;;15.10;11.18;;;;;25.20;100352.00;;;;10466172;28;20197;-78
2021/07/24 15:36:46;;;;;;;15.55;11.05;;;;;25.20;100357.00;;;;10467663;28;20193;-78
2021/07/24 15:41:48;;;;;;;12.88;10.30;;;;;25.10;100355.00;;;;10457512;28;20243;-78
2021/07/24 15:46:50;;;;;;;12.05;10.10;;;;;25.00;100348.00;;;;10471920;28;20213;-78
2021/07/24 15:51:52;;;;;;;12.32;9.88;;;;;24.80;100358.00;;;;10455368;28;20661;-78
2021/07/24 15:56:54;;;;;;;15.60;10.38;;;;;24.50;100350.00;;;;10446075;28;20204;-78
2021/07/24 16:01:55;;;;;;;17.20;13.52;;;;;24.20;100351.00;;;;10470853;28;20194;-78
2021/07/24 16:06:58;;;;;;;15.85;14.00;;;;;23.90;100346.00;;;;10467172;28;20283;-78
2021/07/24 16:12:00;;;;;;;18.13;15.65;;;;;23.70;100338.00;;;;10471025;28;20288;-78
2021/07/24 16:17:03;;;;;;;19.35;15.85;;;;;23.40;100336.00;;;;10483249;28;20198;-78
2021/07/24 16:22:07;;;;;;;21.20;17.40;;;;;23.20;100343.00;;;;10487469;28;20193;-78
2021/07/24 16:27:08;;;;;;;18.20;15.60;;;;;23.00;100346.00;;;;10464335;28;20232;-78
2021/07/24 16:32:10;;;;;;;16.95;15.15;;;;;22.80;100343.00;;;;10460484;28;20217;-77
2021/07/24 16:37:12;;;;;;;19.92;17.10;;;;;22.70;100324.00;;;;10453440;28;20687;-78
2021/07/24 16:42:14;;;;;;;18.33;16.17;;;;;22.50;100302.00;;;;10477757;28;20193;-77
2021/07/24 16:47:16;;;;;;;30.20;22.27;;;;;22.30;100299.00;;;;10435533;28;20221;-78
2021/07/24 16:52:18;;;;;;;29.73;21.27;;;;;22.20;100298.00;;;;10484383;28;20216;-78
2021/07/24 16:57:21;;;;;;;21.35;17.73;;;;;22.00;100307.00;;;;10457665;28;20202;-77
2021/07/24 17:02:24;;;;;;;24.70;18.00;;;;;21.90;100292.00;;;;10457499;28;20255;-79
2021/07/24 17:07:28;;;;;;;23.00;18.63;;;;;21.80;100301.00;;;;10459257;28;20202;-78
2021/07/24 17:12:29;;;;;;;26.10;18.83;;;;;21.70;100308.00;;;;10441594;28;20268;-77
2021/07/24 17:17:31;;;;;;;23.40;18.60;;;;;21.50;100322.00;;;;10466974;28;20181;-78
2021/07/24 17:22:33;;;;;;;27.42;19.08;;;;;21.50;100323.00;;;;10473071;28;20749;-78
2021/07/24 17:27:35;;;;;;;23.33;19.33;;;;;21.40;100338.00;;;;10467042;28;20213;-78
2021/07/24 17:32:37;;;;;;;24.67;19.20;;;;;21.30;100357.00;;;;10460401;28;20690;-78
2021/07/24 17:37:39;;;;;;;24.10;19.00;;;;;21.20;100375.00;;;;10506881;28;20182;-78
2021/07/24 17:42:41;;;;;;;24.80;20.08;;;;;21.10;100390.00;;;;10456209;28;20193;-78
2021/07/24 17:47:42;;;;;;;27.38;20.38;;;;;21.00;100393.00;;;;10437598;28;20640;-79
2021/07/24 17:52:44;;;;;;;27.27;21.55;;;;;20.90;100384.00;;;;10480142;28;20202;-79
2021/07/24 17:57:48;;;;;;;22.08;16.35;;;;;20.80;100382.00;;;;10462200;28;20549;-79
2021/07/24 18:02:50;;;;;;;15.30;11.88;;;;;20.70;100377.00;;;;10418326;28;20248;-79
2021/07/24 18:07:52;;;;;;;7.30;5.57;;;;;20.30;100389.00;;;;10447562;28;20655;-80
2021/07/24 18:12:54;;;;;;;7.10;3.88;;;;;19.70;100404.00;;;;10454900;28;20201;-80
2021/07/24 18:17:56;;;;;;;3.80;2.78;;;;;19.20;100399.00;;;;10455777;28;20197;-80
2021/07/24 18:22:59;;;;;;;4.85;2.72;;;;;18.70;100382.00;;;;10480185;28;20192;-80
2021/07/24 18:28:01;;;;;;;3.08;2.50;;;;;18.40;100379.00;;;;10482497;28;20265;-82
2021/07/24 18:33:03;;;;;;;4.68;3.42;;;;;18.10;100373.00;;;;10447040;28;20226;-81
2021/07/24 18:38:05;;;;;;;5.50;3.60;;;;;18.00;100361.00;;;;10447802;28;20200;-81
2021/07/24 18:43:07;;;;;;;4.75;3.60;;;;;17.90;100358.00;;;;10430269;28;20206;-80
2021/07/24 18:48:09;;;;;;;6.68;4.47;;;;;17.80;100370.00;;;;10484367;28;20256;-80
2021/07/24 18:53:13;;;;;;;5.75;3.80;;;;;17.70;100366.00;;;;10458504;28;20204;-80
2021/07/24 18:58:15;;;;;;;10.48;4.22;;;;;17.70;100367.00;;;;10439127;28;20872;-80
2021/07/24 19:03:17;;;;;;;4.70;3.70;;;;;17.60;100376.00;;;;10449785;28;20248;-82
2021/07/24 19:08:19;;;;;;;4.00;3.22;;;;;17.60;100391.00;;;;10423214;28;20252;-80
2021/07/24 19:13:25;;;;;;;7.07;3.80;;;;;17.60;100399.00;;;;10454007;28;20616;-79
2021/07/24 19:18:26;;;;;;;5.78;3.40;;;;;17.60;100391.00;;;;10484360;28;20219;-78
2021/07/24 19:23:28;;;;;;;7.57;3.22;;;;;17.50;100386.00;;;;10453278;28;20193;-79
2021/07/24 19:28:32;;;;;;;5.00;3.92;;;;;17.50;100391.00;;;;10459286;28;20263;-78
2021/07/24 19:33:34;;;;;;;5.30;3.53;;;;;17.40;100381.00;;;;10476726;28;20210;-79
2021/07/24 19:38:37;;;;;;;6.47;3.35;;;;;17.40;100375.00;;;;10469704;28;20552;-78
2021/07/24 19:43:38;;;;;;;5.65;3.75;;;;;17.30;100380.00;;;;10471212;28;20201;-78
2021/07/24 19:48:40;;;;;;;8.77;3.88;;;;;17.30;100391.00;;;;10502505;28;20194;-78
2021/07/24 19:53:43;;;;;;;10.55;3.95;;;;;17.30;100384.00;;;;10505069;28;20312;-78
2021/07/24 19:58:45;;;;;;;5.03;4.22;;;;;17.20;100394.00;;;;10495228;28;20534;-78
2021/07/24 20:03:48;;;;;;;6.90;4.53;;;;;17.20;100393.00;;;;10443643;28;20206;-78
2021/07/24 20:08:50;;;;;;;5.35;4.05;;;;;17.10;100401.00;;;;10461911;28;20210;-78
2021/07/24 20:13:54;;;;;;;5.00;4.27;;;;;17.00;100407.00;;;;10438204;28;20201;-77
2021/07/24 20:18:56;;;;;;;7.75;4.65;;;;;16.90;100388.00;;;;10460332;28;20185;-78
2021/07/24 20:23:58;;;;;;;9.50;4.60;;;;;16.80;100390.00;;;;10487053;28;20195;-78
2021/07/24 20:28:59;;;;;;;10.50;5.17;;;;;16.80;100388.00;;;;10454993;28;20208;-77
2021/07/24 20:34:02;;;;;;;9.33;5.17;;;;;16.80;100384.00;;;;10476333;28;20206;-78
2021/07/24 20:39:04;;;;;;;8.75;4.95;;;;;16.70;100372.00;;;;10451117;28;20190;-77
2021/07/24 20:44:05;;;;;;;11.70;5.50;;;;;16.70;100359.00;;;;10459140;28;20206;-77
2021/07/24 20:49:07;;;;;;;8.87;5.23;;;;;16.70;100354.00;;;;10486760;28;20221;-78
2021/07/24 20:54:09;;;;;;;5.70;4.90;;;;;16.70;100348.00;;;;10446181;28;20222;-77
2021/07/24 20:59:11;;;;;;;8.83;5.47;;;;;16.80;100351.00;;;;10452196;28;20584;-78
2021/07/24 21:04:28;;;;;;;10.90;6.20;;;;;16.80;100358.00;;;;10446839;28;20196;-77
2021/07/24 21:09:30;;;;;;;6.57;4.93;;;;;16.90;100344.00;;;;10447056;28;20233;-77
2021/07/24 21:14:34;;;;;;;7.83;4.77;;;;;16.90;100350.00;;;;10446119;28;20220;-78
2021/07/24 21:19:38;;;;;;;9.07;5.27;;;;;17.00;100335.00;;;;10446522;28;20652;-78
2021/07/24 21:24:40;;;;;;;6.20;5.60;;;;;17.00;100335.00;;;;10464838;28;20786;-77
2021/07/24 21:29:41;;;;;;;7.07;5.20;;;;;16.90;100322.00;;;;10453296;28;20211;-77
2021/07/24 21:34:43;;;;;;;8.13;6.15;;;;;17.00;100319.00;;;;10504864;28;20259;-77
2021/07/24 21:40:05;;;;;;;11.30;5.78;;;;;17.00;100322.00;;;;10460182;28;20196;-77
2021/07/24 21:45:08;;;;;;;9.97;8.77;;;;;17.00;100317.00;;;;10475405;28;20205;-78
2021/07/24 21:50:11;;;;;;;7.43;6.07;;;;;17.00;100331.00;;;;10470339;28;20746;-78
2021/07/24 21:55:13;;;;;;;8.77;5.72;;;;;16.90;100323.00;;;;10457384;28;20201;-77
2021/07/24 22:00:23;;;;;;;8.73;5.40;;;;;16.80;100324.00;;;;10448669;28;20667;-77
2021/07/24 22:05:25;;;;;;;7.32;5.65;;;;;16.70;100335.00;;;;10465573;28;20224;-78
2021/07/24 22:10:27;;;;;;;8.90;6.45;;;;;16.70;100325.00;;;;10452459;28;20289;-77
2021/07/24 22:15:31;;;;;;;17.20;6.55;;;;;16.70;100331.00;;;;10450740;28;20197;-78
2021/07/24 22:20:33;;;;;;;6.53;4.97;;;;;16.70;100332.00;;;;10445005;28;20614;-77
2021/07/24 22:25:37;;;;;;;5.97;5.13;;;;;16.60;100326.00;;;;10437080;28;20198;-78
2021/07/24 22:30:39;;;;;;;5.63;4.83;;;;;16.60;100323.00;;;;10471652;28;20288;-77
2021/07/24 22:35:41;;;;;;;8.77;5.07;;;;;16.50;100330.00;;;;10446542;28;20301;-78
2021/07/24 22:40:43;;;;;;;10.93;4.93;;;;;16.50;100319.00;;;;10457987;28;20204;-78
2021/07/24 22:45:45;;;;;;;8.27;5.03;;;;;16.50;100325.00;;;;10468777;28;20233;-78
2021/07/24 22:50:47;;;;;;;7.60;4.67;;;;;16.50;100321.00;;;;10436157;28;20739;-78
2021/07/24 22:55:49;;;;;;;7.07;5.13;;;;;16.50;100331.00;;;;10432720;28;20214;-77
2021/07/24 23:00:51;;;;;;;7.50;5.33;;;;;16.50;100317.00;;;;10425170;28;20198;-77
2021/07/24 23:05:53;;;;;;;9.00;6.10;;;;;16.50;100331.00;;;;10456096;28;20549;-77
2021/07/24 23:10:58;;;;;;;9.93;5.90;;;;;16.50;100334.00;;;;10455878;28;20288;-78
2021/07/24 23:16:00;;;;;;;8.70;6.00;;;;;16.60;100345.00;;;;10470599;28;20230;-77
2021/07/24 23:21:02;;;;;;;12.13;7.03;;;;;16.60;100345.00;;;;10454815;28;20203;-78
2021/07/24 23:26:04;;;;;;;10.17;6.43;;;;;16.70;100344.00;;;;10445385;28;20658;-77
2021/07/24 23:31:07;;;;;;;10.57;6.63;;;;;16.70;100341.00;;;;10433955;28;20202;-77
2021/07/24 23:36:09;;;;;;;14.80;6.90;;;;;16.70;100342.00;;;;10450785;28;20300;-78
2021/07/24 23:41:18;;;;;;;15.77;6.23;;;;;16.60;100340.00;;;;10467798;28;20197;-78
2021/07/24 23:46:19;;;;;;;14.43;6.77;;;;;16.60;100352.00;;;;10453129;28;20202;-78
2021/07/24 23:51:21;;;;;;;12.50;6.80;;;;;16.60;100354.00;;;;10445552;28;20213;-77
2021/07/24 23:56:23;;;;;;;9.63;7.32;;;;;16.60;100354.00;;;;10470318;28;20202;-77
